Flight Track Log - Related Links

Times and Time Zones

All times are in EDT time to prevent confusion due to time zone crossing. See the RPA3159 flight status page for this flight to view local times or setup timezone preferences in your user account.

Time Position Orientation Groundspeed Altitude Reporting Facility
EDT Latitude Longitude Course Direction KTS MPH feet Rate Location/Type
Mon 12:39:29 PM 44.3761 -73.0847 195° South 241 277 4,200  Level Boston Center
Mon 12:40:00 PM 44.2016 -73.2500 180° South  Level FlightAware Approximate
Mon 12:40:29 PM 44.3053 -73.1131 196° South 260 299 7,400  Level Boston Center
Mon 12:41:00 PM 44.1127 -73.2828 195° South  Level FlightAware Approximate
Mon 12:41:29 PM 44.2278 -73.1528 200° South 290 334 10,300  Level Boston Center
Mon 12:42:00 PM 44.0234 -73.3144 194° South  Level FlightAware Approximate
Mon 12:42:29 PM 44.1525 -73.2183 212° Southwest 316 364 11,600  Level Boston Center
Mon 12:43:00 PM 43.9213 -73.3484 193° South  Level FlightAware Approximate
Mon 12:43:41 PM 44.0517 -73.3094 213° Southwest 357 411 14,500  Level Boston Center
Mon 12:44:00 PM 43.8199 -73.3864 195° South  Level FlightAware Approximate
Mon 12:44:41 PM 43.9636 -73.3889 213° Southwest 372 428 16,500  Level Boston Center
Mon 12:45:41 PM 43.8753 -73.4711 214° Southwest 386 444 18,700 2,000 Climbing Boston Center
Mon 12:46:41 PM 43.7850 -73.5531 213° Southwest 391 450 20,500 1,600 Climbing Boston Center
Mon 12:47:41 PM 43.6967 -73.6317 213° Southwest 407 468 21,900 1,600 Climbing Boston Center
Mon 12:48:41 PM 43.5894 -73.7272 213° Southwest 418 481 23,700 1,550 Climbing Boston Center
Mon 12:49:41 PM 43.4883 -73.8167 213° Southwest 423 487 25,000 1,150 Climbing Boston Center
Mon 12:50:41 PM 43.4061 -73.8861 212° Southwest 429 494 26,000 500 Climbing Boston Center
Mon 12:51:41 PM 43.2903 -73.9919 214° Southwest 448 516 26,000  Level Boston Center
Mon 12:52:41 PM 43.1825 -74.0886 213° Southwest 454 522 26,000  Level Boston Center
Mon 12:53:41 PM 43.0747 -74.1853 213° Southwest 460 529 26,000  Level Boston Center
Mon 12:54:41 PM 42.9692 -74.2789 213° Southwest 465 535 26,000  Level Boston Center
Mon 12:55:41 PM 42.8614 -74.3719 212° Southwest 465 535 26,000  Level Boston Center
Mon 12:56:41 PM 42.7533 -74.4647 212° Southwest 465 535 26,000  Level Boston Center
Mon 12:57:41 PM 42.6453 -74.5600 213° Southwest 465 535 26,000  Level Boston Center
Mon 12:58:41 PM 42.5394 -74.6494 212° Southwest 465 535 26,000 -252 Level Boston Center
Mon 01:01:00 PM 42.4192 -74.7340 212° Southwest  Level FlightAware Approximate
Mon 01:01:39 PM 42.2278 -74.9183 212° Southwest 449 517 25,000  Level New York Center
Mon 01:02:39 PM 42.1161 -75.0092 211° Southwest 444 511 22,500 -2,331 Descending New York Center
Mon 01:03:40 PM 42.0197 -75.0894 212° Southwest 433 498 20,300 -1,721 Descending New York Center
Mon 01:04:41 PM 41.9231 -75.1697 212° Southwest 419 482 19,000 -756 Descending New York Center
Mon 01:05:39 PM 41.8286 -75.2469 211° Southwest 409 471 18,800 -605 Descending New York Center
Mon 01:06:40 PM 41.7342 -75.3211 210° Southwest 404 465 17,800 -1,200 Descending New York Center
Mon 01:07:39 PM 41.6525 -75.3878 211° Southwest 399 459 16,400 -1,765 Descending New York Center
Mon 01:08:39 PM 41.5581 -75.4617 210° Southwest 399 459 14,300 -2,132 Descending New York Center
Mon 01:09:40 PM 41.4653 -75.5381 212° Southwest 380 437 12,100 -1,140 Descending New York Center
Mon 01:10:40 PM 41.3794 -75.6039 210° Southwest 372 428 12,000 -50 Descending New York Center
Mon 01:11:41 PM 41.2889 -75.6747 210° Southwest 372 428 12,000  Level New York Center
Mon 01:12:41 PM 41.1950 -75.6789 182° South 361 415 12,000  Level New York Center
Mon 01:13:41 PM 41.0942 -75.6469 167° South 372 428 12,000  Level New York Center
Mon 01:14:40 PM 40.9936 -75.6122 165° South 377 434 12,000  Level New York Center
Mon 01:15:41 PM 40.8950 -75.5806 166° South 371 427 12,000  Level New York Center
Mon 01:16:39 PM 40.7861 -75.5428 165° South 371 427 12,000  Level New York Center
Mon 01:17:39 PM 40.6872 -75.5111 166° South 366 421 12,000  Level New York Center
Mon 01:18:40 PM 40.5908 -75.4772 165° South 371 427 12,000 -645 Level New York Center
Mon 01:19:40 PM 40.4981 -75.4489 167° South 364 419 10,700 -1,091 Descending New York Center
Mon 01:20:41 PM 40.4203 -75.4136 161° South 323 372 9,800 -942 Descending New York Center
Mon 01:21:41 PM 40.3428 -75.3703 157° South 308 354 8,800 -966 Descending New York Center
Mon 01:22:39 PM 40.2775 -75.3333 157° South 293 337 7,900 -1,000 Descending New York Center
Mon 01:23:41 PM 40.1939 -75.2869 157° South 298 343 6,800 -934 Descending New York Center
Mon 01:24:41 PM 40.1267 -75.2475 156° South 293 337 6,000 -407 Descending New York Center
Mon 01:25:39 PM 40.0611 -75.2106 157° South 288 331 6,000  Level New York Center
Mon 01:26:29 PM 40.0000 -75.1833 161° South 230 265 6,000  Level Philadelphia TRACON
Mon 01:27:29 PM 39.9833 -75.1000 105° East 221 254 6,000 -300 Level Philadelphia TRACON
Mon 01:28:29 PM 40.0000 -75.0333 72° East 219 252 5,400 -696 Descending Philadelphia TRACON
Mon 01:29:47 PM 40.0333 -74.9333 66° East 220 253 4,400 -667 Descending Philadelphia TRACON
Mon 01:30:35 PM 40.0000 -74.8833 131° Southeast 197 227 4,000 -222 Descending Philadelphia TRACON
Mon 01:31:35 PM 39.9500 -74.9000 194° South 189 217 4,000 -472 Level Philadelphia TRACON
Mon 01:32:42 PM 39.9333 -74.9667 252° West 167 192 3,000 -496 Descending Philadelphia TRACON
Mon 01:33:36 PM 39.9167 -75.0167 247° West 172 198 3,000  Level Philadelphia TRACON

Login

Don't have an account? Register now (free) for customized features, flight alerts, and more!